sensor_id;sensor_type;location;lat;lon;timestamp;pressure;altitude;pressure_sealevel;temperature;humidity
74542;BME280;63015;45.378;20.360;2023-02-08T00:01:10;102945.81;;;-4.88;65.81
74542;BME280;63015;45.378;20.360;2023-02-08T00:03:11;102942.03;;;-5.01;66.55
74542;BME280;63015;45.378;20.360;2023-02-08T00:05:12;102945.84;;;-5.13;67.55
74542;BME280;63015;45.378;20.360;2023-02-08T00:07:12;102941.50;;;-5.14;67.03
74542;BME280;63015;45.378;20.360;2023-02-08T00:09:13;102945.00;;;-5.05;66.30
74542;BME280;63015;45.378;20.360;2023-02-08T00:11:14;102944.72;;;-4.99;65.95
74542;BME280;63015;45.378;20.360;2023-02-08T00:13:14;102936.22;;;-5.00;65.92
74542;BME280;63015;45.378;20.360;2023-02-08T00:15:15;102940.88;;;-4.96;65.47
74542;BME280;63015;45.378;20.360;2023-02-08T00:17:15;102946.69;;;-4.97;65.84
74542;BME280;63015;45.378;20.360;2023-02-08T00:19:16;102949.38;;;-4.95;65.31
74542;BME280;63015;45.378;20.360;2023-02-08T00:21:17;102944.28;;;-4.95;65.20
74542;BME280;63015;45.378;20.360;2023-02-08T00:23:18;102954.81;;;-4.92;64.96
74542;BME280;63015;45.378;20.360;2023-02-08T00:25:18;102954.47;;;-4.95;66.09
74542;BME280;63015;45.378;20.360;2023-02-08T00:27:19;102952.25;;;-4.92;65.17
74542;BME280;63015;45.378;20.360;2023-02-08T00:29:20;102957.16;;;-4.93;65.32
74542;BME280;63015;45.378;20.360;2023-02-08T00:31:20;102958.81;;;-4.94;65.53
74542;BME280;63015;45.378;20.360;2023-02-08T00:33:21;102962.59;;;-4.90;65.14
74542;BME280;63015;45.378;20.360;2023-02-08T00:35:21;102968.13;;;-4.86;64.87
74542;BME280;63015;45.378;20.360;2023-02-08T00:37:22;102970.50;;;-4.87;64.96
74542;BME280;63015;45.378;20.360;2023-02-08T00:39:23;102962.00;;;-4.88;65.02
74542;BME280;63015;45.378;20.360;2023-02-08T00:41:25;102960.78;;;-4.91;65.61
74542;BME280;63015;45.378;20.360;2023-02-08T00:43:26;102960.19;;;-4.89;65.24
74542;BME280;63015;45.378;20.360;2023-02-08T00:45:26;102961.72;;;-4.82;64.86
74542;BME280;63015;45.378;20.360;2023-02-08T00:47:27;102958.44;;;-4.81;65.26
74542;BME280;63015;45.378;20.360;2023-02-08T00:49:28;102957.84;;;-4.79;65.31
74542;BME280;63015;45.378;20.360;2023-02-08T00:51:28;102943.31;;;-4.80;64.73
74542;BME280;63015;45.378;20.360;2023-02-08T00:53:29;102955.19;;;-4.71;64.49
74542;BME280;63015;45.378;20.360;2023-02-08T00:55:30;102950.09;;;-4.71;64.84
74542;BME280;63015;45.378;20.360;2023-02-08T00:57:32;102949.31;;;-4.70;64.88
74542;BME280;63015;45.378;20.360;2023-02-08T00:59:32;102949.91;;;-4.73;64.97
74542;BME280;63015;45.378;20.360;2023-02-08T01:01:33;102949.03;;;-4.73;65.06
74542;BME280;63015;45.378;20.360;2023-02-08T01:03:36;102941.22;;;-4.84;65.93
74542;BME280;63015;45.378;20.360;2023-02-08T01:05:37;102954.72;;;-4.76;65.51
74542;BME280;63015;45.378;20.360;2023-02-08T01:07:38;102943.06;;;-4.74;65.03
74542;BME280;63015;45.378;20.360;2023-02-08T01:09:39;102945.91;;;-4.71;64.92
74542;BME280;63015;45.378;20.360;2023-02-08T01:11:39;102941.69;;;-4.70;65.04
74542;BME280;63015;45.378;20.360;2023-02-08T01:13:40;102939.34;;;-4.69;64.95
74542;BME280;63015;45.378;20.360;2023-02-08T01:15:42;102943.66;;;-4.68;64.80
74542;BME280;63015;45.378;20.360;2023-02-08T01:17:43;102942.03;;;-4.67;64.83
74542;BME280;63015;45.378;20.360;2023-02-08T01:19:43;102942.91;;;-4.67;64.78
74542;BME280;63015;45.378;20.360;2023-02-08T01:21:44;102955.06;;;-4.64;64.83
74542;BME280;63015;45.378;20.360;2023-02-08T01:23:45;102955.41;;;-4.86;66.63
74542;BME280;63015;45.378;20.360;2023-02-08T01:25:46;102958.78;;;-4.69;65.47
74542;BME280;63015;45.378;20.360;2023-02-08T01:27:46;102953.44;;;-4.64;65.24
74542;BME280;63015;45.378;20.360;2023-02-08T01:29:47;102945.94;;;-4.62;65.17
74542;BME280;63015;45.378;20.360;2023-02-08T01:31:47;102958.50;;;-4.64;65.97
74542;BME280;63015;45.378;20.360;2023-02-08T01:33:48;102967.78;;;-4.64;66.26
74542;BME280;63015;45.378;20.360;2023-02-08T01:35:50;102970.06;;;-4.58;66.32
74542;BME280;63015;45.378;20.360;2023-02-08T01:37:51;102960.34;;;-4.45;65.58
74542;BME280;63015;45.378;20.360;2023-02-08T01:39:52;102951.38;;;-4.41;65.58
74542;BME280;63015;45.378;20.360;2023-02-08T01:41:54;102958.28;;;-4.40;65.87
74542;BME280;63015;45.378;20.360;2023-02-08T01:44:08;102956.44;;;-4.50;66.37
74542;BME280;63015;45.378;20.360;2023-02-08T01:46:29;102972.63;;;-4.83;67.91
74542;BME280;63015;45.378;20.360;2023-02-08T01:48:36;102971.63;;;-4.68;67.69
74542;BME280;63015;45.378;20.360;2023-02-08T01:50:50;102964.56;;;-4.46;67.30
74542;BME280;63015;45.378;20.360;2023-02-08T01:52:52;102968.41;;;-4.58;67.61
74542;BME280;63015;45.378;20.360;2023-02-08T01:54:57;102969.66;;;-4.46;67.11
74542;BME280;63015;45.378;20.360;2023-02-08T01:56:59;102966.69;;;-4.33;66.55
74542;BME280;63015;45.378;20.360;2023-02-08T01:59:03;102953.22;;;-4.23;66.24
74542;BME280;63015;45.378;20.360;2023-02-08T02:01:05;102961.41;;;-4.34;66.89
74542;BME280;63015;45.378;20.360;2023-02-08T02:03:07;102960.22;;;-4.29;66.73
74542;BME280;63015;45.378;20.360;2023-02-08T02:05:08;102960.38;;;-4.36;67.26
74542;BME280;63015;45.378;20.360;2023-02-08T02:07:10;102960.41;;;-4.19;66.30
74542;BME280;63015;45.378;20.360;2023-02-08T02:09:30;102966.25;;;-4.11;66.37
74542;BME280;63015;45.378;20.360;2023-02-08T02:11:33;102966.44;;;-4.09;66.55
74542;BME280;63015;45.378;20.360;2023-02-08T02:13:36;102962.22;;;-4.18;67.23
74542;BME280;63015;45.378;20.360;2023-02-08T02:15:36;102961.78;;;-4.22;67.24
74542;BME280;63015;45.378;20.360;2023-02-08T02:17:38;102959.81;;;-4.16;67.33
74542;BME280;63015;45.378;20.360;2023-02-08T02:21:53;102955.50;;;-3.91;65.99
74542;BME280;63015;45.378;20.360;2023-02-08T02:24:29;102956.84;;;-4.03;66.71
74542;BME280;63015;45.378;20.360;2023-02-08T02:28:58;102956.84;;;-3.94;66.54
74542;BME280;63015;45.378;20.360;2023-02-08T02:33:59;102958.06;;;-3.91;66.69
74542;BME280;63015;45.378;20.360;2023-02-08T02:36:12;102953.09;;;-3.89;66.99
74542;BME280;63015;45.378;20.360;2023-02-08T02:43:15;102965.84;;;-4.07;68.22
74542;BME280;63015;45.378;20.360;2023-02-08T02:45:44;102966.16;;;-3.95;67.23
74542;BME280;63015;45.378;20.360;2023-02-08T02:48:00;102962.09;;;-3.84;66.65
74542;BME280;63015;45.378;20.360;2023-02-08T02:50:12;102966.13;;;-4.04;68.13
74542;BME280;63015;45.378;20.360;2023-02-08T02:52:28;102960.59;;;-4.00;67.84
74542;BME280;63015;45.378;20.360;2023-02-08T02:54:47;102965.41;;;-4.03;68.37
74542;BME280;63015;45.378;20.360;2023-02-08T02:56:56;102959.41;;;-3.94;68.10
74542;BME280;63015;45.378;20.360;2023-02-08T02:59:03;102943.38;;;-3.93;67.94
74542;BME280;63015;45.378;20.360;2023-02-08T03:01:04;102956.72;;;-3.87;67.66
74542;BME280;63015;45.378;20.360;2023-02-08T03:03:04;102948.75;;;-3.90;68.13
74542;BME280;63015;45.378;20.360;2023-02-08T03:05:08;102954.75;;;-3.90;68.33
74542;BME280;63015;45.378;20.360;2023-02-08T03:16:34;102983.22;;;-4.03;69.75
74542;BME280;63015;45.378;20.360;2023-02-08T03:21:11;102978.13;;;-3.85;68.76
74542;BME280;63015;45.378;20.360;2023-02-08T03:23:34;102989.97;;;-3.86;69.45
74542;BME280;63015;45.378;20.360;2023-02-08T03:25:51;102985.50;;;-3.88;69.41
74542;BME280;63015;45.378;20.360;2023-02-08T03:28:22;102995.22;;;-4.02;70.25
74542;BME280;63015;45.378;20.360;2023-02-08T03:30:31;103002.22;;;-4.17;71.15
74542;BME280;63015;45.378;20.360;2023-02-08T03:37:36;103007.34;;;-4.08;71.35
74542;BME280;63015;45.378;20.360;2023-02-08T03:39:40;103004.63;;;-4.01;71.19
74542;BME280;63015;45.378;20.360;2023-02-08T03:41:45;103003.28;;;-4.06;71.87
74542;BME280;63015;45.378;20.360;2023-02-08T03:43:51;103013.75;;;-4.20;72.27
74542;BME280;63015;45.378;20.360;2023-02-08T03:46:05;103015.41;;;-4.21;72.83
74542;BME280;63015;45.378;20.360;2023-02-08T03:48:09;103013.03;;;-4.10;72.41
74542;BME280;63015;45.378;20.360;2023-02-08T03:50:11;103010.13;;;-4.31;72.97
74542;BME280;63015;45.378;20.360;2023-02-08T03:52:17;103006.44;;;-4.17;72.57
74542;BME280;63015;45.378;20.360;2023-02-08T03:54:20;103000.31;;;-4.02;71.79
74542;BME280;63015;45.378;20.360;2023-02-08T03:56:45;102997.59;;;-3.94;71.86
74542;BME280;63015;45.378;20.360;2023-02-08T03:58:49;103001.63;;;-4.14;72.66
74542;BME280;63015;45.378;20.360;2023-02-08T04:01:12;102997.34;;;-3.89;71.50
74542;BME280;63015;45.378;20.360;2023-02-08T04:03:22;102992.53;;;-3.86;71.57
74542;BME280;63015;45.378;20.360;2023-02-08T04:05:24;103001.25;;;-3.84;71.76
74542;BME280;63015;45.378;20.360;2023-02-08T04:07:25;102993.16;;;-3.71;71.09
74542;BME280;63015;45.378;20.360;2023-02-08T04:09:25;102994.03;;;-3.70;71.11
74542;BME280;63015;45.378;20.360;2023-02-08T04:11:26;102993.91;;;-3.72;71.40
74542;BME280;63015;45.378;20.360;2023-02-08T04:13:27;102996.72;;;-3.69;70.86
74542;BME280;63015;45.378;20.360;2023-02-08T04:15:27;102985.94;;;-3.66;70.62
74542;BME280;63015;45.378;20.360;2023-02-08T04:17:28;102978.16;;;-3.59;70.32
74542;BME280;63015;45.378;20.360;2023-02-08T04:19:28;102984.00;;;-3.51;69.78
74542;BME280;63015;45.378;20.360;2023-02-08T04:21:29;102985.94;;;-3.57;70.48
74542;BME280;63015;45.378;20.360;2023-02-08T04:23:30;102976.34;;;-3.51;70.22
74542;BME280;63015;45.378;20.360;2023-02-08T04:25:30;102974.53;;;-3.52;69.92
74542;BME280;63015;45.378;20.360;2023-02-08T04:27:31;102976.81;;;-3.55;70.26
74542;BME280;63015;45.378;20.360;2023-02-08T04:29:31;102973.50;;;-3.63;70.85
74542;BME280;63015;45.378;20.360;2023-02-08T04:31:32;102981.13;;;-3.54;70.21
74542;BME280;63015;45.378;20.360;2023-02-08T04:33:32;102982.47;;;-3.49;70.18
74542;BME280;63015;45.378;20.360;2023-02-08T04:35:33;102983.81;;;-3.44;69.86
74542;BME280;63015;45.378;20.360;2023-02-08T04:37:33;102986.69;;;-3.41;69.29
74542;BME280;63015;45.378;20.360;2023-02-08T04:39:34;102979.78;;;-3.51;70.31
74542;BME280;63015;45.378;20.360;2023-02-08T04:41:34;102980.66;;;-3.41;69.54
74542;BME280;63015;45.378;20.360;2023-02-08T04:43:35;102985.16;;;-3.39;69.42
74542;BME280;63015;45.378;20.360;2023-02-08T04:45:36;102985.63;;;-3.43;69.94
74542;BME280;63015;45.378;20.360;2023-02-08T04:47:37;102992.41;;;-3.43;69.71
74542;BME280;63015;45.378;20.360;2023-02-08T04:49:37;102994.78;;;-3.63;70.96
74542;BME280;63015;45.378;20.360;2023-02-08T04:51:38;103004.81;;;-3.82;72.14
74542;BME280;63015;45.378;20.360;2023-02-08T04:53:38;102999.88;;;-3.63;70.80
74542;BME280;63015;45.378;20.360;2023-02-08T04:55:39;102999.44;;;-3.50;70.08
74542;BME280;63015;45.378;20.360;2023-02-08T04:57:39;103011.44;;;-3.49;70.36
74542;BME280;63015;45.378;20.360;2023-02-08T04:59:40;103023.13;;;-3.68;71.74
74542;BME280;63015;45.378;20.360;2023-02-08T05:01:40;103020.72;;;-3.84;72.25
74542;BME280;63015;45.378;20.360;2023-02-08T05:03:41;103026.09;;;-3.72;71.82
74542;BME280;63015;45.378;20.360;2023-02-08T05:05:42;103023.84;;;-3.87;72.68
74542;BME280;63015;45.378;20.360;2023-02-08T05:07:42;103026.19;;;-4.06;73.82
74542;BME280;63015;45.378;20.360;2023-02-08T05:09:43;103033.88;;;-3.97;73.15
74542;BME280;63015;45.378;20.360;2023-02-08T05:11:43;103038.28;;;-3.78;72.24
74542;BME280;63015;45.378;20.360;2023-02-08T05:13:44;103041.53;;;-3.88;72.92
74542;BME280;63015;45.378;20.360;2023-02-08T05:15:44;103047.34;;;-4.07;73.45
74542;BME280;63015;45.378;20.360;2023-02-08T05:17:45;103037.47;;;-4.04;73.28
74542;BME280;63015;45.378;20.360;2023-02-08T05:19:45;103039.25;;;-4.03;73.19
74542;BME280;63015;45.378;20.360;2023-02-08T05:21:46;103039.72;;;-3.98;73.31
74542;BME280;63015;45.378;20.360;2023-02-08T05:23:46;103039.72;;;-3.98;73.04
74542;BME280;63015;45.378;20.360;2023-02-08T05:25:47;103045.28;;;-3.93;72.89
74542;BME280;63015;45.378;20.360;2023-02-08T05:27:47;103051.56;;;-3.99;73.14
74542;BME280;63015;45.378;20.360;2023-02-08T05:29:48;103051.00;;;-3.87;72.29
74542;BME280;63015;45.378;20.360;2023-02-08T05:31:48;103051.09;;;-3.94;72.76
74542;BME280;63015;45.378;20.360;2023-02-08T05:33:50;103057.28;;;-3.92;72.47
74542;BME280;63015;45.378;20.360;2023-02-08T05:35:50;103047.84;;;-3.85;71.68
74542;BME280;63015;45.378;20.360;2023-02-08T05:37:51;103040.31;;;-3.92;72.35
74542;BME280;63015;45.378;20.360;2023-02-08T05:39:51;103047.09;;;-3.92;72.27
74542;BME280;63015;45.378;20.360;2023-02-08T05:41:52;103047.84;;;-3.85;71.20
74542;BME280;63015;45.378;20.360;2023-02-08T05:43:52;103042.28;;;-3.89;72.06
74542;BME280;63015;45.378;20.360;2023-02-08T05:45:53;103054.13;;;-3.90;71.95
74542;BME280;63015;45.378;20.360;2023-02-08T05:47:53;103053.97;;;-3.83;70.70
74542;BME280;63015;45.378;20.360;2023-02-08T05:49:54;103054.25;;;-3.97;71.79
74542;BME280;63015;45.378;20.360;2023-02-08T05:51:54;103065.19;;;-3.98;71.67
74542;BME280;63015;45.378;20.360;2023-02-08T05:53:55;103059.81;;;-3.92;70.92
74542;BME280;63015;45.378;20.360;2023-02-08T05:55:56;103059.22;;;-3.90;70.59
74542;BME280;63015;45.378;20.360;2023-02-08T05:57:57;103063.13;;;-3.85;70.35
74542;BME280;63015;45.378;20.360;2023-02-08T05:59:58;103068.22;;;-3.85;70.26
74542;BME280;63015;45.378;20.360;2023-02-08T06:01:58;103064.75;;;-3.85;69.88
74542;BME280;63015;45.378;20.360;2023-02-08T06:03:59;103071.22;;;-3.89;70.20
74542;BME280;63015;45.378;20.360;2023-02-08T06:06:00;103082.00;;;-3.91;70.45
74542;BME280;63015;45.378;20.360;2023-02-08T06:08:00;103092.34;;;-3.90;69.89
74542;BME280;63015;45.378;20.360;2023-02-08T06:10:02;103095.34;;;-3.94;70.21
74542;BME280;63015;45.378;20.360;2023-02-08T06:12:03;103097.72;;;-3.96;70.30
74542;BME280;63015;45.378;20.360;2023-02-08T06:14:03;103098.22;;;-4.24;72.49
74542;BME280;63015;45.378;20.360;2023-02-08T06:16:05;103108.94;;;-4.36;73.50
74542;BME280;63015;45.378;20.360;2023-02-08T06:18:06;103113.34;;;-4.26;72.69
74542;BME280;63015;45.378;20.360;2023-02-08T06:20:08;103109.47;;;-4.14;71.53
74542;BME280;63015;45.378;20.360;2023-02-08T06:22:09;103110.69;;;-4.10;71.68
74542;BME280;63015;45.378;20.360;2023-02-08T06:24:09;103116.88;;;-4.08;71.65
74542;BME280;63015;45.378;20.360;2023-02-08T06:26:10;103120.63;;;-3.96;71.07
74542;BME280;63015;45.378;20.360;2023-02-08T06:28:11;103114.97;;;-3.84;70.35
74542;BME280;63015;45.378;20.360;2023-02-08T06:30:12;103117.41;;;-3.77;70.21
74542;BME280;63015;45.378;20.360;2023-02-08T06:32:12;103116.38;;;-3.70;70.86
74542;BME280;63015;45.378;20.360;2023-02-08T06:34:13;103113.09;;;-3.69;70.91
74542;BME280;63015;45.378;20.360;2023-02-08T06:36:13;103117.91;;;-3.55;70.63
74542;BME280;63015;45.378;20.360;2023-02-08T06:38:14;103119.97;;;-3.59;71.50
74542;BME280;63015;45.378;20.360;2023-02-08T06:40:14;103120.41;;;-3.72;72.20
74542;BME280;63015;45.378;20.360;2023-02-08T06:42:15;103120.00;;;-3.68;72.23
74542;BME280;63015;45.378;20.360;2023-02-08T06:44:15;103115.50;;;-3.71;72.28
74542;BME280;63015;45.378;20.360;2023-02-08T06:46:16;103124.72;;;-3.80;72.63
74542;BME280;63015;45.378;20.360;2023-02-08T06:48:16;103131.38;;;-3.73;73.10
74542;BME280;63015;45.378;20.360;2023-02-08T06:50:17;103117.94;;;-3.46;71.87
74542;BME280;63015;45.378;20.360;2023-02-08T06:52:18;103113.13;;;-3.43;71.60
74542;BME280;63015;45.378;20.360;2023-02-08T06:54:19;103113.97;;;-3.69;72.31
74542;BME280;63015;45.378;20.360;2023-02-08T06:56:20;103121.97;;;-3.48;72.15
74542;BME280;63015;45.378;20.360;2023-02-08T06:58:20;103128.88;;;-3.38;72.27
74542;BME280;63015;45.378;20.360;2023-02-08T07:00:21;103124.97;;;-3.26;71.35
74542;BME280;63015;45.378;20.360;2023-02-08T07:02:22;103123.63;;;-2.87;70.73
74542;BME280;63015;45.378;20.360;2023-02-08T07:04:22;103128.09;;;-2.50;70.14
74542;BME280;63015;45.378;20.360;2023-02-08T07:06:23;103128.84;;;-2.59;69.68
74542;BME280;63015;45.378;20.360;2023-02-08T07:08:23;103126.63;;;-2.65;69.82
74542;BME280;63015;45.378;20.360;2023-02-08T07:10:24;103136.78;;;-2.48;69.58
74542;BME280;63015;45.378;20.360;2023-02-08T07:12:24;103129.47;;;-2.71;70.22
74542;BME280;63015;45.378;20.360;2023-02-08T07:14:25;103136.25;;;-2.98;71.23
74542;BME280;63015;45.378;20.360;2023-02-08T07:16:25;103131.28;;;-2.70;70.48
74542;BME280;63015;45.378;20.360;2023-02-08T07:18:26;103131.88;;;-2.72;70.79
74542;BME280;63015;45.378;20.360;2023-02-08T07:20:26;103140.13;;;-2.49;70.40
74542;BME280;63015;45.378;20.360;2023-02-08T07:22:27;103137.00;;;-2.18;69.77
74542;BME280;63015;45.378;20.360;2023-02-08T07:24:27;103136.00;;;-1.92;68.37
74542;BME280;63015;45.378;20.360;2023-02-08T07:26:28;103137.34;;;-2.24;68.73
74542;BME280;63015;45.378;20.360;2023-02-08T07:28:29;103139.00;;;-1.88;68.63
74542;BME280;63015;45.378;20.360;2023-02-08T07:30:29;103146.00;;;-1.76;68.46
74542;BME280;63015;45.378;20.360;2023-02-08T07:32:30;103146.81;;;-1.58;67.78
74542;BME280;63015;45.378;20.360;2023-02-08T07:34:33;103146.19;;;-1.84;67.47
74542;BME280;63015;45.378;20.360;2023-02-08T07:36:34;103155.13;;;-1.98;67.40
74542;BME280;63015;45.378;20.360;2023-02-08T07:38:35;103152.25;;;-1.64;67.75
74542;BME280;63015;45.378;20.360;2023-02-08T07:40:36;103151.00;;;-1.59;67.13
74542;BME280;63015;45.378;20.360;2023-02-08T07:42:36;103155.00;;;-1.24;66.34
74542;BME280;63015;45.378;20.360;2023-02-08T07:44:57;103151.78;;;-0.94;65.40
74542;BME280;63015;45.378;20.360;2023-02-08T07:46:58;103157.84;;;-0.83;64.67
74542;BME280;63015;45.378;20.360;2023-02-08T07:49:00;103168.91;;;-0.93;64.83
74542;BME280;63015;45.378;20.360;2023-02-08T07:51:01;103162.84;;;-1.04;65.19
74542;BME280;63015;45.378;20.360;2023-02-08T07:53:01;103162.09;;;-0.84;65.49
74542;BME280;63015;45.378;20.360;2023-02-08T07:55:02;103173.06;;;-0.65;65.00
74542;BME280;63015;45.378;20.360;2023-02-08T07:57:03;103165.91;;;-0.30;64.58
74542;BME280;63015;45.378;20.360;2023-02-08T07:59:03;103165.06;;;-0.20;63.86
74542;BME280;63015;45.378;20.360;2023-02-08T08:01:04;103168.66;;;-0.08;63.07
74542;BME280;63015;45.378;20.360;2023-02-08T08:03:04;103174.19;;;-0.43;61.81
74542;BME280;63015;45.378;20.360;2023-02-08T08:05:06;103173.09;;;-0.26;62.99
74542;BME280;63015;45.378;20.360;2023-02-08T08:07:06;103175.56;;;-0.17;62.57
74542;BME280;63015;45.378;20.360;2023-02-08T08:09:07;103176.22;;;-0.09;61.52
74542;BME280;63015;45.378;20.360;2023-02-08T08:11:07;103176.59;;;-0.15;60.92
74542;BME280;63015;45.378;20.360;2023-02-08T08:13:08;103174.16;;;-0.72;61.14
74542;BME280;63015;45.378;20.360;2023-02-08T08:15:09;103164.69;;;-0.44;61.54
74542;BME280;63015;45.378;20.360;2023-02-08T08:17:09;103176.91;;;-0.02;61.84
74542;BME280;63015;45.378;20.360;2023-02-08T08:19:10;103172.47;;;0.27;60.95
74542;BME280;63015;45.378;20.360;2023-02-08T08:21:10;103171.22;;;0.53;60.19
74542;BME280;63015;45.378;20.360;2023-02-08T08:23:11;103170.97;;;0.70;59.77
74542;BME280;63015;45.378;20.360;2023-02-08T08:25:12;103177.78;;;0.59;59.97
74542;BME280;63015;45.378;20.360;2023-02-08T08:27:12;103174.06;;;0.87;59.66
74542;BME280;63015;45.378;20.360;2023-02-08T08:29:13;103174.19;;;0.78;59.19
74542;BME280;63015;45.378;20.360;2023-02-08T08:31:16;103173.91;;;0.95;59.03
74542;BME280;63015;45.378;20.360;2023-02-08T08:33:17;103169.03;;;1.41;59.42
74542;BME280;63015;45.378;20.360;2023-02-08T08:35:18;103167.16;;;1.61;58.60
74542;BME280;63015;45.378;20.360;2023-02-08T08:37:18;103162.31;;;1.86;57.69
74542;BME280;63015;45.378;20.360;2023-02-08T08:39:19;103164.81;;;1.74;55.30
74542;BME280;63015;45.378;20.360;2023-02-08T08:41:19;103167.41;;;1.31;56.92
74542;BME280;63015;45.378;20.360;2023-02-08T08:43:26;103174.91;;;1.51;57.64
74542;BME280;63015;45.378;20.360;2023-02-08T08:45:26;103172.59;;;1.86;56.06
74542;BME280;63015;45.378;20.360;2023-02-08T08:47:27;103174.72;;;1.70;56.40
74542;BME280;63015;45.378;20.360;2023-02-08T08:49:28;103185.34;;;1.85;55.68
74542;BME280;63015;45.378;20.360;2023-02-08T08:51:28;103184.19;;;2.03;56.23
74542;BME280;63015;45.378;20.360;2023-02-08T08:53:34;103185.72;;;2.11;55.81
74542;BME280;63015;45.378;20.360;2023-02-08T08:55:36;103182.22;;;2.33;55.37
74542;BME280;63015;45.378;20.360;2023-02-08T08:57:36;103191.34;;;2.52;55.33
74542;BME280;63015;45.378;20.360;2023-02-08T08:59:37;103183.56;;;2.62;53.66
74542;BME280;63015;45.378;20.360;2023-02-08T09:01:37;103191.34;;;2.52;54.47
74542;BME280;63015;45.378;20.360;2023-02-08T09:03:40;103196.72;;;2.77;52.39
74542;BME280;63015;45.378;20.360;2023-02-08T09:05:40;103196.75;;;2.33;53.09
74542;BME280;63015;45.378;20.360;2023-02-08T09:07:41;103201.94;;;2.44;53.58
74542;BME280;63015;45.378;20.360;2023-02-08T09:09:42;103197.88;;;2.58;53.33
74542;BME280;63015;45.378;20.360;2023-02-08T09:11:48;103194.81;;;2.74;52.96
74542;BME280;63015;45.378;20.360;2023-02-08T09:13:49;103198.56;;;2.68;53.44
74542;BME280;63015;45.378;20.360;2023-02-08T09:15:55;103202.84;;;2.79;53.39
74542;BME280;63015;45.378;20.360;2023-02-08T09:17:55;103205.78;;;2.84;52.12
74542;BME280;63015;45.378;20.360;2023-02-08T09:19:56;103200.94;;;2.76;50.77
74542;BME280;63015;45.378;20.360;2023-02-08T09:21:56;103215.03;;;2.70;51.56
74542;BME280;63015;45.378;20.360;2023-02-08T09:24:00;103200.66;;;2.95;51.54
74542;BME280;63015;45.378;20.360;2023-02-08T09:26:05;103207.16;;;3.02;51.50
74542;BME280;63015;45.378;20.360;2023-02-08T09:28:07;103209.78;;;3.50;51.26
74542;BME280;63015;45.378;20.360;2023-02-08T09:30:08;103216.84;;;3.40;50.24
74542;BME280;63015;45.378;20.360;2023-02-08T09:32:08;103219.63;;;3.43;50.02
74542;BME280;63015;45.378;20.360;2023-02-08T09:34:09;103219.06;;;3.48;48.70
74542;BME280;63015;45.378;20.360;2023-02-08T09:36:09;103214.00;;;3.37;48.88
74542;BME280;63015;45.378;20.360;2023-02-08T09:38:10;103212.34;;;3.50;49.99
74542;BME280;63015;45.378;20.360;2023-02-08T09:40:21;103220.31;;;3.41;48.91
74542;BME280;63015;45.378;20.360;2023-02-08T09:42:28;103212.69;;;3.54;49.70
74542;BME280;63015;45.378;20.360;2023-02-08T09:46:57;103215.94;;;3.28;48.85
74542;BME280;63015;45.378;20.360;2023-02-08T09:49:01;103220.31;;;3.41;47.86
74542;BME280;63015;45.378;20.360;2023-02-08T09:51:18;103215.47;;;3.22;48.24
74542;BME280;63015;45.378;20.360;2023-02-08T09:53:39;103216.22;;;3.09;48.02
74542;BME280;63015;45.378;20.360;2023-02-08T09:55:49;103219.06;;;3.12;48.31
74542;BME280;63015;45.378;20.360;2023-02-08T09:57:52;103214.22;;;3.05;48.14
74542;BME280;63015;45.378;20.360;2023-02-08T09:59:56;103218.31;;;2.79;49.48
74542;BME280;63015;45.378;20.360;2023-02-08T10:01:59;103220.09;;;2.80;49.44
74542;BME280;63015;45.378;20.360;2023-02-08T10:04:24;103219.56;;;2.84;49.11
74542;BME280;63015;45.378;20.360;2023-02-08T10:06:28;103220.47;;;2.85;49.22
74542;BME280;63015;45.378;20.360;2023-02-08T10:08:29;103216.69;;;3.03;49.60
74542;BME280;63015;45.378;20.360;2023-02-08T10:10:46;103202.81;;;3.37;49.41
74542;BME280;63015;45.378;20.360;2023-02-08T10:17:36;103217.97;;;3.44;48.49
74542;BME280;63015;45.378;20.360;2023-02-08T10:20:05;103214.13;;;3.62;49.47
74542;BME280;63015;45.378;20.360;2023-02-08T10:29:15;103218.38;;;3.50;49.46
74542;BME280;63015;45.378;20.360;2023-02-08T10:33:53;103218.50;;;3.75;49.31
74542;BME280;63015;45.378;20.360;2023-02-08T10:35:59;103214.47;;;3.67;48.97
74542;BME280;63015;45.378;20.360;2023-02-08T10:37:59;103215.03;;;3.75;48.38
74542;BME280;63015;45.378;20.360;2023-02-08T10:42:35;103210.06;;;3.78;48.19
74542;BME280;63015;45.378;20.360;2023-02-08T10:51:52;103213.13;;;3.72;49.04
74542;BME280;63015;45.378;20.360;2023-02-08T10:53:53;103213.88;;;3.83;49.05
74542;BME280;63015;45.378;20.360;2023-02-08T10:55:53;103214.72;;;4.07;48.73
74542;BME280;63015;45.378;20.360;2023-02-08T10:57:57;103215.13;;;4.25;48.56
74542;BME280;63015;45.378;20.360;2023-02-08T11:00:02;103215.19;;;4.39;48.08
74542;BME280;63015;45.378;20.360;2023-02-08T11:02:26;103217.06;;;4.41;47.33
74542;BME280;63015;45.378;20.360;2023-02-08T11:04:27;103212.84;;;4.30;47.92
74542;BME280;63015;45.378;20.360;2023-02-08T11:06:28;103219.19;;;4.22;47.24
74542;BME280;63015;45.378;20.360;2023-02-08T11:08:28;103225.91;;;4.20;48.12
74542;BME280;63015;45.378;20.360;2023-02-08T11:10:29;103223.03;;;4.15;47.69
74542;BME280;63015;45.378;20.360;2023-02-08T11:12:30;103222.44;;;4.19;48.08
74542;BME280;63015;45.378;20.360;2023-02-08T11:14:39;103223.75;;;4.01;47.20
74542;BME280;63015;45.378;20.360;2023-02-08T11:16:39;103222.94;;;4.39;47.61
74542;BME280;63015;45.378;20.360;2023-02-08T11:18:48;103226.78;;;4.57;46.44
74542;BME280;63015;45.378;20.360;2023-02-08T11:20:52;103227.09;;;4.87;47.25
74542;BME280;63015;45.378;20.360;2023-02-08T11:22:54;103223.81;;;5.03;46.09
74542;BME280;63015;45.378;20.360;2023-02-08T11:25:00;103229.59;;;4.74;44.98
74542;BME280;63015;45.378;20.360;2023-02-08T11:27:01;103221.66;;;4.71;45.23
74542;BME280;63015;45.378;20.360;2023-02-08T11:31:19;103222.88;;;4.51;46.62
74542;BME280;63015;45.378;20.360;2023-02-08T11:33:20;103223.28;;;4.82;45.58
74542;BME280;63015;45.378;20.360;2023-02-08T11:35:24;103225.72;;;4.92;45.74